Time;durP1;ratioP1;P1;durP2;ratioP2;P2;SDS_P1;SDS_P2;PMS_P1;PMS_P2;Temp;Humidity;BMP_temperature;BMP_pressure;BME280_temperature;BME280_humidity;BME280_pressure;Samples;Min_cycle;Max_cycle;Signal;HPM_P1;HPM_P2
2021/07/03 00:01:57;;;;;;;12.43;7.63;;;;;;;13.34;82.15;95738.25;5071908;28;20044;-73
2021/07/03 00:04:23;;;;;;;13.38;7.57;;;;;;;13.29;82.22;95740.94;5072622;28;20482;-73
2021/07/03 00:06:49;;;;;;;12.18;7.72;;;;;;;13.24;82.40;95741.00;5064210;28;20090;-73
2021/07/03 00:09:15;;;;;;;13.23;7.80;;;;;;;13.22;82.68;95743.13;5072981;28;20041;-73
2021/07/03 00:11:41;;;;;;;12.55;7.32;;;;;;;13.08;83.14;95744.88;5087582;28;20453;-73
2021/07/03 00:14:07;;;;;;;10.95;7.18;;;;;;;13.08;83.38;95747.50;5077411;28;20047;-73
2021/07/03 00:16:33;;;;;;;12.25;7.30;;;;;;;13.03;83.07;95742.25;5093509;28;20418;-73
2021/07/03 00:18:59;;;;;;;12.25;7.50;;;;;;;12.94;83.54;95745.53;5075792;28;20127;-73
2021/07/03 00:21:25;;;;;;;12.23;8.05;;;;;;;12.87;83.61;95739.75;5077009;28;20123;-73
2021/07/03 00:23:51;;;;;;;12.68;7.60;;;;;;;12.79;84.27;95743.00;5083059;28;20538;-73
2021/07/03 00:26:16;;;;;;;10.68;6.72;;;;;;;12.82;83.86;95742.44;5068720;28;20503;-73
2021/07/03 00:28:42;;;;;;;11.90;7.82;;;;;;;12.74;84.25;95735.13;5067889;28;20052;-73
2021/07/03 00:31:08;;;;;;;11.50;7.13;;;;;;;12.67;83.92;95729.38;5075359;28;20062;-73
2021/07/03 00:33:33;;;;;;;12.77;7.70;;;;;;;12.59;84.19;95723.63;5069190;28;20045;-73
2021/07/03 00:35:59;;;;;;;14.10;7.88;;;;;;;12.51;84.38;95721.56;5053183;28;20383;-73
2021/07/03 00:38:24;;;;;;;13.65;7.65;;;;;;;12.46;84.74;95724.25;5062061;28;20078;-73
2021/07/03 00:40:50;;;;;;;11.65;7.65;;;;;;;12.37;85.16;95721.44;5071646;28;20040;-73
2021/07/03 00:43:15;;;;;;;11.85;7.22;;;;;;;12.35;84.65;95728.81;5073634;28;20032;-73
2021/07/03 00:45:41;;;;;;;12.88;8.02;;;;;;;12.27;85.13;95722.28;5073009;28;20070;-73
2021/07/03 00:48:07;;;;;;;12.38;7.93;;;;;;;12.19;85.64;95720.22;5071229;28;20086;-73
2021/07/03 00:50:33;;;;;;;13.30;7.88;;;;;;;12.15;86.11;95713.91;5076148;28;20044;-73
2021/07/03 00:52:59;;;;;;;13.85;8.07;;;;;;;12.12;85.79;95709.19;5074563;28;20040;-73
2021/07/03 00:55:29;;;;;;;12.05;7.78;;;;;;;12.08;85.61;95718.69;5086875;28;20136;-73
2021/07/03 00:57:54;;;;;;;11.82;7.90;;;;;;;12.05;85.48;95713.97;5057200;28;20083;-73
2021/07/03 01:00:21;;;;;;;13.98;8.07;;;;;;;11.90;86.28;95723.53;5071434;28;20044;-74
2021/07/03 01:02:47;;;;;;;13.07;7.38;;;;;;;11.89;86.97;95732.47;5071331;28;20480;-73
2021/07/03 01:05:14;;;;;;;14.90;8.00;;;;;;;11.84;86.91;95724.63;5061099;28;20045;-73
2021/07/03 01:07:39;;;;;;;11.32;6.95;;;;;;;11.81;86.89;95724.34;5052609;28;20049;-73
2021/07/03 01:10:15;;;;;;;12.32;7.35;;;;;;;11.77;87.19;95732.03;5075516;28;20039;-74
2021/07/03 01:12:41;;;;;;;11.27;6.85;;;;;;;11.76;87.23;95727.81;5079820;28;20040;-74
2021/07/03 01:15:07;;;;;;;11.73;6.85;;;;;;;11.72;87.08;95734.69;5078276;28;20082;-73
2021/07/03 01:17:32;;;;;;;12.95;6.95;;;;;;;11.65;87.25;95731.53;5072155;28;20094;-74
2021/07/03 01:19:58;;;;;;;11.60;6.97;;;;;;;11.61;87.10;95732.09;5075072;28;20050;-74
2021/07/03 01:22:23;;;;;;;14.55;6.93;;;;;;;11.53;87.31;95723.97;5074361;28;20098;-74
2021/07/03 01:24:49;;;;;;;11.88;7.10;;;;;;;11.59;86.95;95733.41;5088596;28;20105;-74
2021/07/03 01:27:15;;;;;;;9.35;6.47;;;;;;;11.59;86.69;95728.94;5077194;28;20486;-74
2021/07/03 01:29:41;;;;;;;11.70;6.85;;;;;;;11.59;87.02;95728.94;5070708;28;20036;-73
2021/07/03 01:32:07;;;;;;;11.20;6.75;;;;;;;11.56;87.42;95729.47;5080335;28;20464;-73
2021/07/03 01:34:33;;;;;;;12.35;7.13;;;;;;;11.56;87.44;95724.19;5077584;28;20064;-73
2021/07/03 01:36:58;;;;;;;11.40;6.80;;;;;;;11.56;86.90;95718.16;5069090;28;20090;-74
2021/07/03 01:39:25;;;;;;;11.52;6.35;;;;;;;11.57;87.30;95715.25;5068840;28;20044;-73
2021/07/03 01:41:51;;;;;;;11.57;6.72;;;;;;;11.55;86.60;95722.63;5090645;28;20044;-73
2021/07/03 01:44:24;;;;;;;12.63;7.07;;;;;;;11.54;86.65;95726.31;5071969;28;20089;-73
2021/07/03 01:46:51;;;;;;;11.35;6.70;;;;;;;11.50;86.86;95724.50;5083166;28;20506;-74
2021/07/03 01:49:16;;;;;;;11.75;6.88;;;;;;;11.43;87.10;95719.50;5076837;28;20162;-73
2021/07/03 01:51:42;;;;;;;11.75;6.40;;;;;;;11.44;86.52;95721.09;5072777;28;20040;-74
2021/07/03 01:54:07;;;;;;;11.38;6.22;;;;;;;11.34;87.64;95731.66;5074566;28;20062;-73
2021/07/03 01:56:33;;;;;;;13.00;7.43;;;;;;;11.23;88.18;95726.44;5069820;28;20457;-73
2021/07/03 01:58:59;;;;;;;12.70;6.75;;;;;;;11.20;88.74;95721.69;5076675;28;20040;-73
2021/07/03 02:01:25;;;;;;;13.63;6.72;;;;;;;11.21;87.76;95725.91;5071120;28;20040;-73
2021/07/03 02:03:51;;;;;;;15.65;6.50;;;;;;;11.15;87.99;95729.59;5074950;28;20064;-73
2021/07/03 02:06:16;;;;;;;10.57;6.72;;;;;;;11.06;88.17;95725.94;5069232;28;20524;-73
2021/07/03 02:08:42;;;;;;;10.93;6.82;;;;;;;11.00;89.08;95727.00;5071266;28;20048;-73
2021/07/03 02:11:07;;;;;;;12.45;7.43;;;;;;;11.00;88.65;95727.00;5073642;28;20047;-73
2021/07/03 02:13:33;;;;;;;11.43;7.32;;;;;;;10.95;88.73;95730.44;5070683;28;20086;-73
2021/07/03 02:15:58;;;;;;;11.32;6.75;;;;;;;10.92;88.74;95715.94;5070735;28;20048;-73
2021/07/03 02:18:24;;;;;;;13.40;6.82;;;;;;;10.91;88.32;95714.38;5055816;28;20124;-73
2021/07/03 02:20:50;;;;;;;11.48;7.05;;;;;;;10.87;89.05;95718.59;5080402;28;20062;-73
2021/07/03 02:23:17;;;;;;;12.65;7.05;;;;;;;10.86;89.07;95714.38;5070517;28;20129;-73
2021/07/03 02:25:45;;;;;;;12.60;7.35;;;;;;;10.74;89.80;95713.88;5072642;28;20067;-73
2021/07/03 02:28:15;;;;;;;12.15;7.20;;;;;;;10.73;89.64;95718.34;5069327;28;20033;-73
2021/07/03 02:30:41;;;;;;;11.13;7.20;;;;;;;10.76;89.58;95717.03;5086198;28;20040;-73
2021/07/03 02:33:07;;;;;;;10.82;6.75;;;;;;;10.73;89.20;95717.53;5068228;28;20037;-73
2021/07/03 02:35:33;;;;;;;12.90;7.32;;;;;;;10.69;89.46;95721.78;5077209;28;20047;-73
2021/07/03 02:37:59;;;;;;;12.68;6.53;;;;;;;10.64;89.63;95719.16;5077618;28;20089;-73
2021/07/03 02:40:24;;;;;;;10.80;6.40;;;;;;;10.61;89.04;95719.69;5073466;28;20040;-73
2021/07/03 02:42:50;;;;;;;14.73;7.18;;;;;;;10.59;89.33;95722.56;5077806;28;20543;-73
2021/07/03 02:45:17;;;;;;;11.38;6.57;;;;;;;10.56;89.10;95713.34;5085888;28;20037;-74
2021/07/03 02:47:43;;;;;;;13.18;7.13;;;;;;;10.52;88.96;95712.31;5069938;28;20086;-73
2021/07/03 02:50:12;;;;;;;10.88;7.15;;;;;;;10.44;88.82;95720.72;5068380;28;20037;-73
2021/07/03 02:52:38;;;;;;;13.07;6.28;;;;;;;10.41;88.93;95713.34;5064259;28;20044;-74
2021/07/03 02:55:05;;;;;;;11.02;7.00;;;;;;;10.41;89.40;95726.50;5075264;28;20078;-73
2021/07/03 02:57:31;;;;;;;11.50;6.90;;;;;;;10.35;89.45;95717.81;5087542;28;20051;-73
2021/07/03 02:59:56;;;;;;;10.48;6.38;;;;;;;10.31;89.79;95731.72;5081079;28;20036;-73
2021/07/03 03:02:22;;;;;;;10.98;6.80;;;;;;;10.28;89.63;95721.75;5059302;28;20037;-73
2021/07/03 03:04:47;;;;;;;11.00;7.18;;;;;;;10.24;90.15;95726.72;5069039;28;20036;-73
2021/07/03 03:07:13;;;;;;;12.68;6.85;;;;;;;10.25;89.78;95724.91;5064676;28;20082;-73
2021/07/03 03:09:39;;;;;;;17.67;6.95;;;;;;;10.27;89.04;95722.78;5066267;28;20052;-73
2021/07/03 03:12:06;;;;;;;11.70;7.10;;;;;;;10.25;89.44;95722.25;5077512;28;20040;-73
2021/07/03 03:14:32;;;;;;;10.25;6.53;;;;;;;10.23;89.18;95719.91;5070442;28;20041;-73
2021/07/03 03:16:57;;;;;;;11.18;7.00;;;;;;;10.20;89.48;95723.84;5069487;28;20087;-73
2021/07/03 03:19:23;;;;;;;13.30;7.30;;;;;;;10.16;89.79;95729.88;5066525;28;20040;-73
2021/07/03 03:21:50;;;;;;;9.82;6.45;;;;;;;10.14;90.03;95727.50;5070075;28;20045;-73
2021/07/03 03:24:16;;;;;;;12.23;6.95;;;;;;;10.14;90.12;95722.25;5069758;28;20036;-73
2021/07/03 03:26:42;;;;;;;9.93;6.20;;;;;;;10.07;90.32;95726.97;5067557;28;20383;-73
2021/07/03 03:29:07;;;;;;;14.05;6.90;;;;;;;10.12;90.59;95729.59;5068700;28;20036;-73
2021/07/03 03:31:32;;;;;;;10.88;6.80;;;;;;;10.17;90.83;95724.34;5070510;28;20045;-73
2021/07/03 03:33:58;;;;;;;10.65;6.70;;;;;;;10.21;89.99;95727.25;5062909;28;20040;-73
2021/07/03 03:36:24;;;;;;;11.35;6.63;;;;;;;10.19;89.04;95735.41;5063910;28;20040;-73
2021/07/03 03:38:49;;;;;;;10.77;6.85;;;;;;;10.16;88.89;95735.16;5075422;28;20036;-73
2021/07/03 03:41:15;;;;;;;11.05;6.70;;;;;;;10.16;89.77;95735.91;5077002;28;20085;-73
2021/07/03 03:43:41;;;;;;;11.75;6.90;;;;;;;10.16;90.10;95738.56;5070219;28;20520;-73
2021/07/03 03:46:07;;;;;;;14.20;6.85;;;;;;;10.19;89.92;95740.66;5079050;28;20547;-73
2021/07/03 03:48:32;;;;;;;11.73;6.90;;;;;;;10.19;90.72;95740.66;5072319;28;20079;-73
2021/07/03 03:50:58;;;;;;;14.27;7.18;;;;;;;10.17;91.31;95741.97;5073717;28;20050;-73
2021/07/03 03:53:23;;;;;;;12.98;7.68;;;;;;;10.22;90.94;95750.66;5069768;28;20040;-73
2021/07/03 03:55:49;;;;;;;10.65;6.32;;;;;;;10.18;91.24;95746.97;5069841;28;20557;-73
2021/07/03 03:58:15;;;;;;;13.68;7.10;;;;;;;10.21;90.90;95743.03;5059350;28;20044;-73
2021/07/03 04:00:40;;;;;;;15.63;7.55;;;;;;;10.25;90.90;95743.31;5068610;28;20123;-73
2021/07/03 04:03:06;;;;;;;13.25;7.20;;;;;;;10.27;91.17;95735.94;5071074;28;20032;-73
2021/07/03 04:05:31;;;;;;;11.90;6.97;;;;;;;10.31;91.00;95737.78;5068894;28;20036;-73
2021/07/03 04:07:57;;;;;;;11.93;6.75;;;;;;;10.38;91.10;95737.56;5070179;28;20041;-73
2021/07/03 04:10:22;;;;;;;11.68;6.95;;;;;;;10.42;90.85;95733.34;5084552;28;20090;-73
2021/07/03 04:12:48;;;;;;;13.18;7.55;;;;;;;10.49;91.45;95744.41;5073656;28;20120;-73
2021/07/03 04:15:14;;;;;;;11.95;6.90;;;;;;;10.52;91.62;95741.25;5073586;28;20036;-73
2021/07/03 04:17:40;;;;;;;12.23;7.35;;;;;;;10.58;92.12;95737.56;5077957;28;20052;-73
2021/07/03 04:20:07;;;;;;;11.88;7.93;;;;;;;10.67;92.31;95750.19;5055287;28;20422;-73
2021/07/03 04:22:33;;;;;;;15.70;7.93;;;;;;;10.75;92.34;95747.03;5066726;28;20494;-73
2021/07/03 04:24:59;;;;;;;12.07;7.05;;;;;;;10.87;91.35;95746.75;5073086;28;20040;-73
2021/07/03 04:27:25;;;;;;;13.00;7.53;;;;;;;10.90;91.70;95746.22;5070804;28;20041;-73
2021/07/03 04:29:51;;;;;;;16.58;7.57;;;;;;;11.01;91.56;95749.66;5073161;28;20516;-73
2021/07/03 04:32:16;;;;;;;14.73;7.80;;;;;;;11.06;91.66;95747.00;5074243;28;20431;-73
2021/07/03 04:34:42;;;;;;;12.38;7.78;;;;;;;11.17;91.08;95756.47;5070400;28;20049;-73
2021/07/03 04:37:08;;;;;;;14.80;7.40;;;;;;;11.27;91.00;95753.03;5088426;28;20068;-73
2021/07/03 04:39:34;;;;;;;11.85;7.25;;;;;;;11.36;90.76;95761.16;5065318;28;20071;-73
2021/07/03 04:41:59;;;;;;;12.70;6.65;;;;;;;11.45;90.85;95759.56;5067942;28;20053;-74
2021/07/03 04:44:25;;;;;;;11.57;7.30;;;;;;;11.54;90.64;95752.69;5071808;28;20082;-73
2021/07/03 04:46:50;;;;;;;13.77;7.65;;;;;;;11.63;89.80;95749.50;5080046;28;20036;-74
2021/07/03 04:49:16;;;;;;;12.50;7.43;;;;;;;11.69;89.24;95741.28;5084639;28;20032;-74
2021/07/03 04:51:41;;;;;;;12.85;7.47;;;;;;;11.75;89.44;95742.03;5087726;28;20064;-73
2021/07/03 04:54:08;;;;;;;10.88;6.82;;;;;;;11.77;89.77;95739.94;5071648;28;20066;-74
2021/07/03 04:56:33;;;;;;;13.32;7.32;;;;;;;11.76;88.22;95733.09;5077008;28;20119;-74
2021/07/03 04:58:59;;;;;;;11.60;6.55;;;;;;;11.85;87.75;95730.66;5077569;28;20223;-73
2021/07/03 05:01:25;;;;;;;10.23;7.03;;;;;;;11.88;87.77;95730.13;5083455;28;20377;-74
2021/07/03 05:03:51;;;;;;;13.27;6.53;;;;;;;11.86;87.55;95727.75;5072891;28;20055;-74
2021/07/03 05:06:17;;;;;;;18.88;6.55;;;;;;;11.91;87.28;95724.28;5087972;28;20040;-74
2021/07/03 05:08:42;;;;;;;13.90;6.97;;;;;;;11.95;87.42;95723.53;5071769;28;20047;-74
2021/07/03 05:11:08;;;;;;;11.35;6.97;;;;;;;11.98;87.35;95724.81;5073229;28;20439;-74
2021/07/03 05:13:35;;;;;;;12.23;7.18;;;;;;;12.04;87.58;95722.94;5077013;28;20064;-73
2021/07/03 05:16:01;;;;;;;8.98;5.97;;;;;;;12.08;86.69;95713.41;5078798;28;20041;-74
2021/07/03 05:18:26;;;;;;;9.52;6.88;;;;;;;12.17;86.93;95717.06;5072136;28;20032;-74
2021/07/03 05:20:52;;;;;;;13.52;6.88;;;;;;;12.27;86.55;95722.28;5076769;28;20123;-74
2021/07/03 05:23:18;;;;;;;10.13;6.85;;;;;;;12.27;85.85;95722.28;5086251;28;20516;-73
2021/07/03 05:25:44;;;;;;;9.23;6.10;;;;;;;12.36;85.79;95729.63;5077477;28;20043;-73
2021/07/03 05:28:11;;;;;;;10.82;6.22;;;;;;;12.41;86.42;95726.94;5058829;28;20557;-74
2021/07/03 05:30:37;;;;;;;11.73;6.50;;;;;;;12.46;84.91;95729.53;5072953;28;20044;-74
2021/07/03 05:33:03;;;;;;;10.38;6.20;;;;;;;12.43;84.93;95724.81;5074307;28;20264;-73
2021/07/03 05:35:29;;;;;;;10.27;6.28;;;;;;;12.58;84.52;95727.31;5076312;28;20040;-74
2021/07/03 05:37:54;;;;;;;8.90;6.25;;;;;;;12.61;84.27;95731.25;5074473;28;20032;-74
2021/07/03 05:40:20;;;;;;;10.55;6.30;;;;;;;12.75;82.86;95736.69;5070156;28;20082;-74
2021/07/03 05:42:46;;;;;;;11.00;6.60;;;;;;;12.94;82.92;95734.16;5072871;28;20048;-74
2021/07/03 05:45:14;;;;;;;9.75;6.13;;;;;;;12.95;83.24;95728.59;5071768;28;20045;-74
2021/07/03 05:47:42;;;;;;;9.18;5.93;;;;;;;13.00;82.65;95733.84;5074157;28;20036;-74
2021/07/03 05:50:08;;;;;;;12.10;6.18;;;;;;;13.07;83.31;95738.00;5075776;28;20060;-74
2021/07/03 05:52:34;;;;;;;12.30;6.07;;;;;;;13.16;83.38;95731.81;5071256;28;20059;-73
2021/07/03 05:54:59;;;;;;;11.23;6.20;;;;;;;13.34;82.43;95737.47;5071083;28;20648;-74
2021/07/03 05:57:28;;;;;;;10.05;6.10;;;;;;;13.42;81.70;95738.72;5090652;28;20040;-74
2021/07/03 05:59:53;;;;;;;8.88;6.20;;;;;;;13.45;81.49;95732.88;5087456;28;20085;-74
2021/07/03 06:02:19;;;;;;;10.90;6.55;;;;;;;13.45;81.48;95731.03;5071162;28;20048;-73
2021/07/03 06:04:44;;;;;;;7.88;5.60;;;;;;;13.56;81.31;95733.53;5063048;28;20062;-74
2021/07/03 06:07:10;;;;;;;9.82;6.38;;;;;;;13.71;80.99;95729.94;5073243;28;20085;-74
2021/07/03 06:09:35;;;;;;;12.00;6.43;;;;;;;13.68;81.74;95723.34;5066661;28;20065;-73
2021/07/03 06:12:01;;;;;;;8.55;6.18;;;;;;;13.73;81.94;95722.50;5075340;28;20036;-74
2021/07/03 06:14:27;;;;;;;10.32;5.85;;;;;;;13.81;80.70;95713.94;5078056;28;20036;-73
2021/07/03 06:16:52;;;;;;;10.60;5.97;;;;;;;13.90;82.26;95728.09;5075222;28;20138;-74
2021/07/03 06:19:20;;;;;;;8.23;6.13;;;;;;;13.83;84.05;95719.72;5075186;28;20040;-74
2021/07/03 06:21:46;;;;;;;9.80;5.82;;;;;;;13.80;84.09;95722.94;5069851;28;20044;-74
2021/07/03 06:24:13;;;;;;;9.70;5.90;;;;;;;14.06;80.95;95719.97;5086898;28;20517;-73
2021/07/03 06:26:39;;;;;;;10.10;5.30;;;;;;;14.26;79.91;95717.00;5074105;28;20037;-74
2021/07/03 06:29:05;;;;;;;9.98;6.22;;;;;;;14.42;78.14;95714.91;5071848;28;20040;-74
2021/07/03 06:31:30;;;;;;;12.50;5.97;;;;;;;14.52;78.60;95706.84;5069849;28;20047;-74
2021/07/03 06:33:56;;;;;;;9.57;5.80;;;;;;;14.62;79.00;95713.06;5077171;28;20413;-74
2021/07/03 06:36:21;;;;;;;9.35;6.15;;;;;;;14.80;77.98;95716.75;5075154;28;20040;-74
2021/07/03 06:38:47;;;;;;;8.48;5.45;;;;;;;14.81;79.37;95713.00;5073377;28;20090;-73
2021/07/03 06:41:12;;;;;;;8.50;5.80;;;;;;;15.09;77.58;95715.72;5065696;28;20102;-74
2021/07/03 06:43:38;;;;;;;10.43;5.68;;;;;;;15.09;77.31;95707.78;5077038;28;20040;-74
2021/07/03 06:46:04;;;;;;;10.50;5.95;;;;;;;15.05;76.76;95708.34;5078722;28;20071;-74
2021/07/03 06:48:29;;;;;;;9.57;5.85;;;;;;;15.37;75.75;95709.38;5073440;28;20049;-74
2021/07/03 06:50:55;;;;;;;20.30;5.88;;;;;;;15.56;77.13;95705.81;5068008;28;20123;-73
2021/07/03 06:53:20;;;;;;;8.93;5.97;;;;;;;15.42;77.78;95711.91;5070727;28;20033;-75
2021/07/03 06:55:46;;;;;;;8.70;5.70;;;;;;;15.44;76.51;95713.47;5073618;28;20032;-74
2021/07/03 06:58:11;;;;;;;9.00;5.75;;;;;;;15.74;75.03;95707.53;5065606;28;20047;-74
2021/07/03 07:00:37;;;;;;;8.40;5.30;;;;;;;15.68;77.74;95698.13;5070503;28;20036;-74
2021/07/03 07:03:02;;;;;;;8.68;5.72;;;;;;;15.80;74.06;95694.22;5090822;28;20036;-74
2021/07/03 07:05:29;;;;;;;8.45;5.72;;;;;;;16.10;73.74;95704.19;5083758;28;20498;-74
2021/07/03 07:07:55;;;;;;;10.48;5.70;;;;;;;16.16;72.68;95701.41;5071573;28;20110;-74
2021/07/03 07:10:20;;;;;;;8.43;5.70;;;;;;;16.34;72.86;95697.78;5063623;28;20167;-74
2021/07/03 07:12:46;;;;;;;9.45;5.18;;;;;;;16.45;68.90;95701.00;5075814;28;20047;-74
2021/07/03 07:15:12;;;;;;;10.43;5.57;;;;;;;16.63;67.09;95693.94;5076207;28;20043;-73
2021/07/03 07:17:37;;;;;;;9.20;5.53;;;;;;;16.86;65.49;95686.72;5068901;28;20040;-73
2021/07/03 07:20:04;;;;;;;9.65;5.80;;;;;;;16.83;64.69;95691.84;5060111;28;20041;-73
2021/07/03 07:22:30;;;;;;;9.50;5.63;;;;;;;16.57;65.19;95685.28;5063070;28;20112;-72
2021/07/03 07:24:55;;;;;;;9.98;5.88;;;;;;;16.50;64.92;95689.47;5071381;28;20071;-74
2021/07/03 07:27:21;;;;;;;11.55;5.00;;;;;;;16.62;66.03;95679.06;5070411;28;20043;-73
2021/07/03 07:29:46;;;;;;;10.23;5.20;;;;;;;16.82;66.53;95682.31;5074749;28;20033;-73
2021/07/03 07:32:12;;;;;;;9.02;5.22;;;;;;;16.86;63.54;95685.94;5070295;28;20067;-71
2021/07/03 07:34:37;;;;;;;10.75;5.65;;;;;;;17.00;62.94;95673.38;5075045;28;20044;-73
2021/07/03 07:37:05;;;;;;;8.13;5.40;;;;;;;17.17;64.76;95674.50;5072140;28;20387;-74
2021/07/03 07:39:30;;;;;;;8.20;5.05;;;;;;;17.41;62.28;95674.13;5071040;28;20045;-76
2021/07/03 07:41:56;;;;;;;7.93;5.45;;;;;;;17.44;61.13;95663.66;5079896;28;20044;-75
2021/07/03 07:44:21;;;;;;;9.52;5.60;;;;;;;17.49;59.49;95666.16;5074204;28;20047;-76
2021/07/03 07:46:47;;;;;;;8.15;5.65;;;;;;;17.48;60.49;95664.63;5075429;28;20043;-78
2021/07/03 07:49:12;;;;;;;8.75;5.60;;;;;;;17.48;64.28;95656.63;5077904;28;20036;-76
2021/07/03 07:51:38;;;;;;;8.35;5.25;;;;;;;17.44;59.54;95653.03;5083453;28;20040;-77
2021/07/03 07:54:04;;;;;;;8.38;5.45;;;;;;;17.12;61.85;95641.69;5081070;28;20036;-76
2021/07/03 07:56:30;;;;;;;8.80;5.55;;;;;;;17.27;57.27;95642.34;5080460;28;20052;-76
2021/07/03 07:58:56;;;;;;;9.45;5.65;;;;;;;17.61;60.48;95646.16;5073528;28;20088;-76
2021/07/03 08:01:23;;;;;;;8.57;5.35;;;;;;;17.77;62.11;95649.94;5081823;28;20787;-76
2021/07/03 08:03:49;;;;;;;8.80;5.90;;;;;;;17.48;60.58;95648.66;5056731;28;20060;-76
2021/07/03 08:06:14;;;;;;;8.77;5.65;;;;;;;17.31;61.31;95651.25;5094760;28;20036;-76
2021/07/03 08:08:40;;;;;;;10.18;5.57;;;;;;;17.30;61.88;95647.03;5078198;28;20698;-76
2021/07/03 08:11:05;;;;;;;7.97;5.75;;;;;;;17.70;60.23;95649.63;5070847;28;20409;-78
2021/07/03 08:13:31;;;;;;;9.43;5.82;;;;;;;17.53;61.79;95638.94;5090189;28;20041;-77
2021/07/03 08:15:57;;;;;;;8.38;5.18;;;;;;;17.79;61.48;95642.44;5079801;28;20044;-81
2021/07/03 08:18:23;;;;;;;9.50;5.70;;;;;;;17.72;60.11;95647.44;5073894;28;20132;-77
2021/07/03 08:21:04;;;;;;;10.20;5.85;;;;;;;17.78;56.96;95640.84;5075019;28;20040;-76
2021/07/03 08:23:29;;;;;;;9.38;5.63;;;;;;;18.00;56.39;95647.16;5084182;28;20051;-76
2021/07/03 08:25:55;;;;;;;9.63;5.45;;;;;;;18.33;55.25;95630.69;5073645;28;20041;-76
2021/07/03 08:28:20;;;;;;;9.85;5.22;;;;;;;18.34;57.02;95629.59;5068709;28;20503;-76
2021/07/03 08:30:46;;;;;;;8.57;5.25;;;;;;;18.53;56.44;95616.72;5083174;28;20037;-77
2021/07/03 08:33:12;;;;;;;9.68;5.55;;;;;;;18.70;55.64;95625.75;5075588;28;20039;-76
2021/07/03 08:35:37;;;;;;;7.60;5.32;;;;;;;18.75;51.97;95632.78;5074603;28;20106;-76
2021/07/03 08:38:03;;;;;;;9.30;5.50;;;;;;;18.48;53.58;95624.88;5074611;28;20048;-77
2021/07/03 08:40:31;;;;;;;8.18;5.60;;;;;;;18.79;50.90;95623.84;5072621;28;20040;-77
2021/07/03 08:42:57;;;;;;;9.25;5.20;;;;;;;18.74;51.06;95620.56;5087495;28;20042;-77
2021/07/03 08:45:22;;;;;;;9.32;5.95;;;;;;;18.56;53.29;95609.97;5074085;28;20106;-77
2021/07/03 08:47:48;;;;;;;9.82;5.28;;;;;;;18.62;54.46;95613.22;5063471;28;20481;-77
2021/07/03 08:50:17;;;;;;;10.57;5.93;;;;;;;18.45;51.97;95609.50;5071389;28;20037;-77
2021/07/03 08:52:42;;;;;;;9.45;5.50;;;;;;;18.48;55.46;95619.53;5072167;28;20494;-77
2021/07/03 08:55:14;;;;;;;9.02;5.40;;;;;;;18.75;56.10;95617.59;5073499;28;20063;-79
2021/07/03 08:57:54;;;;;;;8.65;5.25;;;;;;;19.02;52.87;95620.94;5065309;28;20041;-77
2021/07/03 09:00:36;;;;;;;8.65;5.43;;;;;;;19.17;51.97;95612.41;5073342;28;20036;-77
2021/07/03 09:03:19;;;;;;;9.85;6.18;;;;;;;19.02;54.17;95612.94;5085124;28;20044;-77
2021/07/03 09:05:52;;;;;;;8.90;5.43;;;;;;;18.94;54.06;95613.78;5085694;28;20041;-77
2021/07/03 09:08:19;;;;;;;8.55;6.05;;;;;;;19.01;53.29;95603.41;5078614;28;20045;-76
2021/07/03 09:10:44;;;;;;;7.85;5.47;;;;;;;19.09;55.53;95610.56;5071130;28;20518;-76
2021/07/03 09:13:11;;;;;;;8.50;5.63;;;;;;;19.05;52.34;95604.34;5088658;28;20036;-76
2021/07/03 09:15:44;;;;;;;11.18;5.57;;;;;;;19.27;50.03;95605.16;5072736;28;20041;-75
2021/07/03 09:18:12;;;;;;;9.02;6.10;;;;;;;19.17;50.97;95601.75;5077602;28;20047;-76
2021/07/03 09:20:59;;;;;;;9.40;5.78;;;;;;;19.27;52.39;95605.16;5068139;28;20090;-76
2021/07/03 09:23:36;;;;;;;8.45;6.20;;;;;;;19.37;52.70;95608.22;5072536;28;20056;-75
2021/07/03 09:26:07;;;;;;;8.55;5.80;;;;;;;19.41;52.01;95605.69;5077049;28;20106;-76
2021/07/03 09:28:41;;;;;;;9.82;5.80;;;;;;;19.60;52.06;95609.81;5077902;28;20490;-77
2021/07/03 09:31:10;;;;;;;9.55;5.70;;;;;;;19.95;49.72;95606.91;5070967;28;20067;-75
2021/07/03 09:33:44;;;;;;;11.35;5.70;;;;;;;20.08;48.19;95612.00;5078047;28;20108;-75
2021/07/03 09:36:13;;;;;;;12.93;5.90;;;;;;;20.02;49.87;95602.59;5071831;28;20102;-74
2021/07/03 09:38:42;;;;;;;10.85;6.10;;;;;;;19.66;49.25;95600.50;5063197;28;20095;-75
2021/07/03 09:41:10;;;;;;;9.27;6.38;;;;;;;19.54;49.22;95599.31;5070961;28;20052;-76
2021/07/03 09:43:52;;;;;;;14.48;5.75;;;;;;;19.85;50.17;95598.19;5072046;28;20505;-76
2021/07/03 09:46:36;;;;;;;10.25;5.80;;;;;;;20.16;49.11;95591.63;5075968;28;20063;-76
2021/07/03 09:49:06;;;;;;;9.10;5.85;;;;;;;19.98;50.89;95590.22;5066660;28;20042;-76
2021/07/03 09:51:37;;;;;;;7.63;5.55;;;;;;;20.46;48.43;95583.50;5082845;28;20040;-76
2021/07/03 09:54:05;;;;;;;11.48;5.78;;;;;;;20.73;47.70;95586.66;5095657;28;20106;-76
2021/07/03 09:56:30;;;;;;;11.68;6.03;;;;;;;20.67;48.51;95588.00;5075416;28;20041;-75
2021/07/03 09:58:56;;;;;;;8.63;5.88;;;;;;;20.73;45.97;95582.13;5073983;28;20047;-77
2021/07/03 10:01:22;;;;;;;9.88;6.03;;;;;;;20.76;46.30;95580.69;5067114;28;20397;-77
2021/07/03 10:03:48;;;;;;;12.57;6.07;;;;;;;20.75;46.37;95571.09;5073700;28;20037;-76
2021/07/03 10:06:21;;;;;;;8.70;5.93;;;;;;;20.82;47.62;95574.00;5076206;28;20500;-76
2021/07/03 10:08:54;;;;;;;8.55;6.22;;;;;;;20.72;46.25;95563.72;5076777;28;20043;-76
2021/07/03 10:11:23;;;;;;;8.10;6.07;;;;;;;20.86;45.86;95566.88;5072204;28;20036;-76
2021/07/03 10:13:55;;;;;;;13.63;6.57;;;;;;;21.04;47.72;95570.06;5076284;28;20040;-76
2021/07/03 10:16:22;;;;;;;8.70;5.78;;;;;;;21.41;45.97;95572.72;5070871;28;20464;-77
2021/07/03 10:18:48;;;;;;;12.30;6.55;;;;;;;21.59;45.85;95557.22;5068487;28;20119;-76
2021/07/03 10:21:21;;;;;;;11.02;6.88;;;;;;;21.81;46.07;95565.84;5072550;28;20055;-76
2021/07/03 10:23:47;;;;;;;11.20;6.72;;;;;;;21.89;45.01;95559.56;5068537;28;20464;-75
2021/07/03 10:26:14;;;;;;;9.50;6.38;;;;;;;22.12;45.24;95562.50;5068747;28;20045;-75
2021/07/03 10:28:42;;;;;;;10.90;7.40;;;;;;;22.03;43.18;95563.75;5049338;28;20048;-75
2021/07/03 10:31:14;;;;;;;11.13;7.15;;;;;;;22.62;42.25;95559.56;5050186;28;20049;-76
2021/07/03 10:33:45;;;;;;;10.52;6.70;;;;;;;22.49;41.65;95553.50;5067607;28;20071;-76
2021/07/03 10:36:25;;;;;;;10.00;6.93;;;;;;;22.63;44.63;95559.22;5059185;28;20037;-76
2021/07/03 10:38:51;;;;;;;9.35;6.95;;;;;;;22.75;44.76;95546.84;5069962;28;20040;-76
2021/07/03 10:41:23;;;;;;;14.20;7.10;;;;;;;23.19;44.41;95552.09;5066347;28;20491;-76
2021/07/03 10:43:52;;;;;;;10.90;6.97;;;;;;;23.29;44.21;95546.19;5067057;28;20047;-76
2021/07/03 10:46:39;;;;;;;11.18;6.75;;;;;;;23.45;43.85;95542.69;5079166;28;20039;-75
2021/07/03 10:49:04;;;;;;;8.82;6.22;;;;;;;23.95;42.74;95543.72;5068765;28;20128;-72
2021/07/03 10:51:36;;;;;;;9.98;6.63;;;;;;;24.41;41.22;95536.81;5079943;28;20041;-73
2021/07/03 10:54:28;;;;;;;12.23;7.10;;;;;;;23.83;42.41;95535.75;5073698;28;20032;-77
2021/07/03 10:57:13;;;;;;;12.93;8.02;;;;;;;23.69;40.53;95542.41;5058106;28;20129;-76
2021/07/03 10:59:43;;;;;;;11.52;7.40;;;;;;;24.88;40.81;95530.31;5069676;28;20430;-76
2021/07/03 11:02:12;;;;;;;14.55;8.20;;;;;;;25.05;38.55;95521.72;5076735;28;20041;-76
2021/07/03 11:04:54;;;;;;;12.43;7.65;;;;;;;25.52;38.95;95516.22;5073175;28;20037;-80
2021/07/03 11:07:25;;;;;;;10.15;7.50;;;;;;;24.98;38.38;95516.22;5068382;28;20036;-77
2021/07/03 11:09:51;;;;;;;13.95;7.82;;;;;;;25.63;37.22;95521.72;5064582;28;20485;-76
2021/07/03 11:12:22;;;;;;;13.40;7.82;;;;;;;24.87;37.45;95520.72;5070813;28;20298;-73
2021/07/03 11:14:49;;;;;;;12.75;7.90;;;;;;;25.41;38.23;95522.25;5077857;28;20387;-73
2021/07/03 11:17:16;;;;;;;12.63;7.85;;;;;;;25.25;38.14;95510.84;5084127;28;20094;-73
2021/07/03 11:19:46;;;;;;;11.30;7.82;;;;;;;25.33;36.11;95504.44;5069646;28;20391;-72
2021/07/03 11:22:13;;;;;;;11.32;7.93;;;;;;;26.14;36.28;95512.31;5069112;28;20197;-73
2021/07/03 11:24:40;;;;;;;13.52;8.60;;;;;;;26.04;37.22;95514.53;5071992;28;20321;-77
2021/07/03 11:27:06;;;;;;;10.68;7.80;;;;;;;25.70;37.89;95506.44;5080821;28;20138;-74